Time;durP1;ratioP1;P1;durP2;ratioP2;P2;SDS_P1;SDS_P2;PMS_P1;PMS_P2;Temp;Humidity;BMP_temperature;BMP_pressure;BME280_temperature;BME280_humidity;BME280_pressure;Samples;Min_cycle;Max_cycle;Signal;HPM_P1;HPM_P2
2022/08/12 00:42:59;;;;;;;2.80;1.80;;;22.10;84.80;;;;;;4996125;28;20499;-78
2022/08/12 00:45:24;;;;;;;3.42;1.77;;;22.10;84.70;;;;;;5006133;28;20037;-79
2022/08/12 00:47:51;;;;;;;3.58;1.90;;;22.10;84.60;;;;;;5014155;28;20053;-81
2022/08/12 00:50:19;;;;;;;2.50;1.80;;;22.10;84.50;;;;;;5013218;28;20473;-78
2022/08/12 00:52:48;;;;;;;3.28;2.08;;;22.10;84.40;;;;;;5015098;28;20087;-78
2022/08/12 00:55:17;;;;;;;3.58;1.95;;;22.20;84.50;;;;;;5014758;28;20030;-78
2022/08/12 00:57:46;;;;;;;3.33;1.88;;;22.20;84.40;;;;;;5014411;28;20022;-79
2022/08/12 01:00:23;;;;;;;2.65;1.73;;;22.20;84.50;;;;;;5000665;28;20023;-78
2022/08/12 01:02:51;;;;;;;3.30;2.17;;;22.10;84.40;;;;;;4986137;28;20499;-79
2022/08/12 01:13:46;;;;;;;4.20;2.00;;;22.10;84.70;;;;;;4996150;28;20041;-76
2022/08/12 01:16:15;;;;;;;2.97;2.05;;;22.10;84.80;;;;;;4986422;28;20501;-78
2022/08/12 01:18:42;;;;;;;2.72;1.80;;;22.10;84.80;;;;;;4996559;28;20034;-77
2022/08/12 01:21:26;;;;;;;3.63;2.10;;;22.10;84.80;;;;;;4999336;28;20083;-77
2022/08/12 01:24:29;;;;;;;3.15;1.98;;;22.10;84.90;;;;;;4996952;28;20041;-78
2022/08/12 01:26:57;;;;;;;3.60;1.95;;;22.10;85.10;;;;;;5013771;28;20022;-77
2022/08/12 01:29:26;;;;;;;3.67;1.90;;;22.10;85.00;;;;;;5012128;28;20532;-78
2022/08/12 01:31:56;;;;;;;2.95;1.80;;;22.10;84.90;;;;;;4992310;28;20080;-77
2022/08/12 01:34:30;;;;;;;2.55;1.83;;;22.10;84.80;;;;;;5014246;28;20084;-78
2022/08/12 01:37:03;;;;;;;2.97;1.70;;;22.10;84.80;;;;;;4991297;28;20065;-78
2022/08/12 01:39:31;;;;;;;3.00;1.80;;;22.10;84.70;;;;;;5004314;28;20057;-77
2022/08/12 01:42:06;;;;;;;2.90;1.80;;;22.10;84.60;;;;;;4998370;28;20026;-78
2022/08/12 01:44:32;;;;;;;3.17;2.00;;;22.10;84.60;;;;;;5019718;28;20036;-77
2022/08/12 01:47:13;;;;;;;2.60;1.83;;;22.10;84.50;;;;;;4994116;28;20402;-79
2022/08/12 01:50:03;;;;;;;3.15;2.20;;;22.10;85.30;;;;;;5003091;28;20026;-77
2022/08/12 01:52:52;;;;;;;3.72;2.20;;;22.10;84.70;;;;;;4993017;28;20462;-79
2022/08/12 01:55:24;;;;;;;3.85;2.30;;;22.10;84.90;;;;;;4994147;28;20441;-78
2022/08/12 01:58:12;;;;;;;3.28;2.00;;;22.10;85.00;;;;;;5010355;28;20042;-77
2022/08/12 02:00:47;;;;;;;3.40;2.13;;;22.10;85.00;;;;;;5001028;28;20041;-77
2022/08/12 02:12:26;;;;;;;3.05;1.90;;;22.00;85.00;;;;;;5010871;28;20543;-78
2022/08/12 02:14:59;;;;;;;;;;;22.00;85.00;;;;;;4994146;28;20030;-78
2022/08/12 02:18:01;;;;;;;3.10;1.92;;;22.00;85.20;;;;;;4995622;28;19905;-77
2022/08/12 02:20:45;;;;;;;3.60;2.03;;;22.00;85.10;;;;;;5002651;28;20038;-77
2022/08/12 02:23:13;;;;;;;3.35;1.90;;;22.10;85.10;;;;;;4995150;28;20493;-78
2022/08/12 02:25:43;;;;;;;2.40;1.60;;;22.00;84.90;;;;;;4993268;28;20044;-77
2022/08/12 02:28:10;;;;;;;2.70;1.90;;;22.10;84.80;;;;;;4981016;28;20037;-77
2022/08/12 02:30:36;;;;;;;3.05;1.80;;;22.10;84.80;;;;;;4996656;28;20400;-78
2022/08/12 02:33:03;;;;;;;3.60;1.90;;;22.10;84.80;;;;;;5001844;28;20489;-79
2022/08/12 02:35:32;;;;;;;2.90;2.00;;;22.10;84.90;;;;;;4999310;28;20022;-79
2022/08/12 02:38:03;;;;;;;3.50;2.10;;;22.10;85.00;;;;;;4994682;28;20029;-79
2022/08/12 02:40:29;;;;;;;3.97;2.10;;;22.10;85.10;;;;;;5007726;28;20029;-79
2022/08/12 02:43:37;;;;;;;2.65;1.90;;;22.10;85.10;;;;;;5011512;28;20550;-77
2022/08/12 02:46:08;;;;;;;3.75;2.28;;;22.10;85.20;;;;;;5009738;28;20493;-77
2022/08/12 02:48:45;;;;;;;4.40;2.20;;;22.00;85.20;;;;;;5005060;28;20433;-77
2022/08/12 02:51:15;;;;;;;2.67;1.90;;;22.00;85.20;;;;;;5007492;28;20436;-77
2022/08/12 02:53:43;;;;;;;3.17;2.08;;;22.00;85.20;;;;;;4998523;28;20037;-79
2022/08/12 02:56:11;;;;;;;2.78;1.88;;;22.00;85.20;;;;;;5004395;28;20029;-78
2022/08/12 02:58:37;;;;;;;3.25;1.90;;;22.00;85.30;;;;;;4995298;28;20374;-78
2022/08/12 03:01:09;;;;;;;3.25;2.15;;;22.00;85.30;;;;;;5002778;28;20045;-79
2022/08/12 03:03:36;;;;;;;2.67;1.95;;;22.00;85.30;;;;;;5002811;28;20069;-79
2022/08/12 03:06:07;;;;;;;3.25;2.08;;;22.00;85.20;;;;;;4986562;28;20026;-79
2022/08/12 03:08:39;;;;;;;2.70;1.90;;;22.00;85.20;;;;;;5010046;28;20068;-78
2022/08/12 03:11:16;;;;;;;3.42;1.80;;;22.00;85.10;;;;;;4974688;28;20026;-79
2022/08/12 03:13:46;;;;;;;3.42;1.80;;;22.10;85.10;;;;;;5012311;28;20068;-78
2022/08/12 03:16:13;;;;;;;2.95;2.00;;;22.10;85.00;;;;;;4983902;28;20026;-78
2022/08/12 03:18:41;;;;;;;2.58;1.90;;;22.10;84.90;;;;;;4982560;28;20165;-77
2022/08/12 03:21:07;;;;;;;3.80;1.98;;;22.10;85.00;;;;;;5001033;28;20030;-78
2022/08/12 03:23:35;;;;;;;3.45;2.10;;;22.10;85.10;;;;;;4975298;28;20080;-78
2022/08/12 03:26:01;;;;;;;2.85;2.00;;;22.10;85.10;;;;;;4999747;28;20109;-79
2022/08/12 03:31:13;;;;;;;2.90;1.90;;;22.00;85.20;;;;;;5004324;28;20033;-77
2022/08/12 03:33:43;;;;;;;3.63;2.25;;;22.00;85.30;;;;;;5002215;28;20037;-77
2022/08/12 03:36:10;;;;;;;3.05;2.00;;;22.00;85.30;;;;;;4989327;28;20084;-77
2022/08/12 03:38:39;;;;;;;3.08;1.90;;;22.00;85.30;;;;;;5006790;28;20030;-78
2022/08/12 03:41:35;;;;;;;2.92;1.90;;;22.00;85.40;;;;;;4998596;28;20416;-78
2022/08/12 04:00:53;;;;;;;3.83;1.80;;;22.00;85.20;;;;;;5001052;28;20444;-78
2022/08/12 04:06:04;;;;;;;2.72;1.90;;;22.10;85.10;;;;;;5008445;28;20400;-81
2022/08/12 04:08:30;;;;;;;3.15;1.85;;;22.10;85.00;;;;;;5004591;28;20105;-76
2022/08/12 04:13:41;;;;;;;3.08;2.10;;;22.00;85.10;;;;;;4996728;28;20635;-78
2022/08/12 04:16:13;;;;;;;3.13;1.90;;;22.00;85.20;;;;;;4996573;28;20058;-78
2022/08/12 04:18:39;;;;;;;2.90;1.90;;;22.00;85.20;;;;;;4993509;28;20019;-76
2022/08/12 04:21:10;;;;;;;3.15;2.00;;;22.00;85.30;;;;;;4992310;28;20773;-79
2022/08/12 04:23:37;;;;;;;;;;;22.00;85.30;;;;;;4981189;28;20112;-77
2022/08/12 04:26:04;;;;;;;3.75;2.15;;;22.00;85.30;;;;;;5015439;28;19917;-76
2022/08/12 04:28:30;;;;;;;2.63;1.88;;;22.00;85.40;;;;;;5006246;28;20032;-76
2022/08/12 04:30:56;;;;;;;3.03;1.90;;;22.00;85.40;;;;;;5013344;28;20109;-79
2022/08/12 04:33:22;;;;;;;2.70;1.90;;;22.00;85.40;;;;;;5006213;28;20044;-76
2022/08/12 04:35:48;;;;;;;2.78;1.95;;;22.00;85.40;;;;;;5007234;28;20022;-80
2022/08/12 04:38:15;;;;;;;2.95;2.15;;;22.00;85.40;;;;;;4997008;28;20109;-76
2022/08/12 04:40:41;;;;;;;2.60;1.77;;;22.00;85.50;;;;;;5005187;28;20026;-77
2022/08/12 04:43:08;;;;;;;2.78;1.85;;;22.00;85.40;;;;;;5011288;28;20543;-77
2022/08/12 04:45:37;;;;;;;3.03;1.75;;;22.00;85.30;;;;;;4995953;28;20473;-77
2022/08/12 04:48:03;;;;;;;5.15;1.88;;;22.00;85.30;;;;;;4994127;28;20113;-76
2022/08/12 04:50:29;;;;;;;2.22;1.50;;;22.00;85.20;;;;;;4993709;28;20401;-77
2022/08/12 04:52:55;;;;;;;2.88;1.83;;;22.00;85.10;;;;;;5009154;28;20092;-79
2022/08/12 04:55:22;;;;;;;3.45;1.90;;;22.10;85.20;;;;;;4996673;28;20480;-74
2022/08/12 04:57:48;;;;;;;4.03;2.00;;;22.10;85.10;;;;;;5008677;28;20030;-78
2022/08/12 05:00:14;;;;;;;3.35;2.15;;;22.00;84.90;;;;;;5014364;28;20080;-76
2022/08/12 05:02:40;;;;;;;3.40;2.03;;;22.00;84.80;;;;;;4997148;28;20037;-79
2022/08/12 05:05:07;;;;;;;3.35;1.95;;;22.10;84.80;;;;;;5014458;28;20026;-78
2022/08/12 05:07:34;;;;;;;4.03;2.10;;;22.00;84.70;;;;;;5014814;28;20145;-76
2022/08/12 05:10:01;;;;;;;4.15;2.30;;;22.00;84.70;;;;;;5014123;28;20022;-77
2022/08/12 05:12:31;;;;;;;3.03;1.98;;;22.00;84.70;;;;;;5014589;28;20049;-78
2022/08/12 05:14:58;;;;;;;4.68;2.20;;;22.00;84.80;;;;;;5013300;28;20026;-77
2022/08/12 05:17:24;;;;;;;3.10;2.08;;;22.00;84.80;;;;;;5014199;28;20022;-78
2022/08/12 05:19:50;;;;;;;4.35;2.20;;;22.00;84.80;;;;;;5012996;28;20026;-78
2022/08/12 05:22:16;;;;;;;3.67;2.08;;;22.00;84.80;;;;;;5013698;28;20036;-76
2022/08/12 05:24:42;;;;;;;3.30;2.10;;;22.00;84.80;;;;;;5007847;28;20017;-78
2022/08/12 05:27:10;;;;;;;3.85;2.08;;;22.00;84.80;;;;;;5013775;28;20025;-76
2022/08/12 05:29:36;;;;;;;3.20;2.10;;;22.00;84.80;;;;;;5013138;28;20049;-75
2022/08/12 05:32:02;;;;;;;3.53;2.10;;;22.00;84.80;;;;;;5013655;28;20092;-77
2022/08/12 05:34:29;;;;;;;3.92;2.25;;;22.00;84.60;;;;;;5004769;28;20575;-76
2022/08/12 05:36:55;;;;;;;4.50;1.90;;;22.10;84.60;;;;;;5014394;28;20374;-77
2022/08/12 05:39:20;;;;;;;3.10;2.00;;;22.10;84.60;;;;;;4997849;28;20025;-76
2022/08/12 05:41:46;;;;;;;3.75;2.03;;;22.10;84.40;;;;;;4996023;28;20509;-78
2022/08/12 05:44:12;;;;;;;3.50;2.00;;;22.10;84.40;;;;;;5013492;28;20076;-77
2022/08/12 05:46:38;;;;;;;4.10;2.17;;;22.10;84.40;;;;;;5013731;28;20485;-76
2022/08/12 05:49:04;;;;;;;4.18;2.15;;;22.10;84.40;;;;;;4996042;28;20026;-78
2022/08/12 05:51:32;;;;;;;3.08;2.00;;;22.10;84.60;;;;;;5013319;28;20098;-76
2022/08/12 05:53:59;;;;;;;3.22;2.10;;;22.10;84.60;;;;;;5013367;28;20519;-75
2022/08/12 05:56:30;;;;;;;3.53;2.15;;;22.10;84.60;;;;;;4995838;28;20030;-77
2022/08/12 05:58:57;;;;;;;5.32;2.25;;;22.10;84.50;;;;;;4995622;28;20124;-76
2022/08/12 06:01:24;;;;;;;4.13;2.42;;;22.10;84.50;;;;;;4995469;28;20120;-76
2022/08/12 06:03:50;;;;;;;3.83;2.28;;;22.10;84.50;;;;;;5013109;28;20544;-80
2022/08/12 06:06:17;;;;;;;3.92;2.38;;;22.10;84.50;;;;;;5013242;28;20021;-76
2022/08/12 06:08:47;;;;;;;3.85;2.17;;;22.10;84.40;;;;;;4995539;28;20026;-77
2022/08/12 06:11:14;;;;;;;4.00;2.30;;;22.10;84.40;;;;;;4995300;28;20076;-78
2022/08/12 06:13:41;;;;;;;3.80;2.10;;;22.10;84.40;;;;;;5012892;28;20072;-79
2022/08/12 06:16:08;;;;;;;4.07;2.17;;;22.10;84.20;;;;;;4995343;28;20033;-77
2022/08/12 06:18:38;;;;;;;3.15;2.15;;;22.10;84.20;;;;;;4995334;28;20026;-77
2022/08/12 06:21:08;;;;;;;5.30;2.42;;;22.20;84.30;;;;;;5012678;28;20397;-76
2022/08/12 06:23:34;;;;;;;3.83;2.30;;;22.20;84.20;;;;;;5012785;28;20021;-77
2022/08/12 06:26:00;;;;;;;3.53;2.20;;;22.20;84.00;;;;;;5012833;28;20504;-76
2022/08/12 06:28:29;;;;;;;3.03;1.92;;;22.20;83.80;;;;;;5012819;28;20061;-76
2022/08/12 06:30:55;;;;;;;3.22;2.15;;;22.30;83.70;;;;;;5012644;28;20044;-77
2022/08/12 06:33:20;;;;;;;4.35;2.40;;;22.30;83.60;;;;;;4995292;28;20026;-76
2022/08/12 06:35:48;;;;;;;4.80;2.17;;;22.30;83.50;;;;;;4995076;28;20026;-77
2022/08/12 06:38:16;;;;;;;3.88;2.20;;;22.30;83.40;;;;;;4995205;28;20026;-79
2022/08/12 06:43:29;;;;;;;3.97;2.30;;;22.30;83.40;;;;;;5012812;28;20041;-79
2022/08/12 06:45:56;;;;;;;4.00;2.15;;;22.30;83.40;;;;;;4994312;28;20048;-78
2022/08/12 06:48:24;;;;;;;4.15;2.28;;;22.40;83.50;;;;;;5012688;28;20021;-76
2022/08/12 06:50:49;;;;;;;4.45;2.20;;;22.40;83.60;;;;;;5012382;28;20408;-79
2022/08/12 06:53:15;;;;;;;3.35;2.00;;;22.30;83.40;;;;;;5013099;28;20030;-78
2022/08/12 06:55:41;;;;;;;3.35;2.15;;;22.40;83.20;;;;;;4995133;28;20036;-77
2022/08/12 06:58:07;;;;;;;3.85;2.60;;;22.40;83.20;;;;;;5000248;28;20037;-80
2022/08/12 07:00:33;;;;;;;3.83;2.28;;;22.40;83.20;;;;;;4995633;28;20413;-78
2022/08/12 07:03:01;;;;;;;4.85;2.20;;;22.40;83.20;;;;;;5013517;28;20026;-78
2022/08/12 07:05:28;;;;;;;3.53;2.10;;;22.40;83.40;;;;;;5013284;28;20053;-78
2022/08/12 07:07:57;;;;;;;3.55;2.30;;;22.50;83.50;;;;;;4995989;28;20104;-78
2022/08/12 07:10:22;;;;;;;4.20;2.45;;;22.50;83.20;;;;;;5012713;28;20022;-80
2022/08/12 07:12:53;;;;;;;3.75;2.40;;;22.50;83.00;;;;;;4995987;28;20025;-80
2022/08/12 07:15:23;;;;;;;3.22;2.10;;;22.60;82.90;;;;;;4995843;28;20057;-78
2022/08/12 07:17:59;;;;;;;3.63;2.30;;;22.60;82.70;;;;;;5013086;28;20026;-78
2022/08/12 07:20:29;;;;;;;3.53;2.00;;;22.60;82.50;;;;;;5012815;28;20029;-79
2022/08/12 07:22:55;;;;;;;3.60;2.20;;;22.70;82.50;;;;;;5013067;28;20057;-79
2022/08/12 07:25:30;;;;;;;3.08;2.17;;;22.70;82.50;;;;;;5012571;28;20121;-79
2022/08/12 07:28:02;;;;;;;4.47;2.45;;;22.60;82.40;;;;;;5013057;28;20061;-78
2022/08/12 07:30:30;;;;;;;2.80;2.10;;;22.70;82.40;;;;;;4994874;28;20022;-79
2022/08/12 07:32:57;;;;;;;3.95;2.30;;;22.70;82.40;;;;;;5012772;28;20058;-79
2022/08/12 07:35:23;;;;;;;5.60;2.75;;;22.70;82.30;;;;;;4995481;28;20405;-78
2022/08/12 07:37:52;;;;;;;3.55;2.20;;;22.70;82.40;;;;;;5013446;28;20069;-79
2022/08/12 07:40:17;;;;;;;3.60;2.40;;;22.70;82.50;;;;;;5012528;28;20517;-81
2022/08/12 07:42:43;;;;;;;3.50;2.33;;;22.70;82.40;;;;;;4994954;28;20033;-78
2022/08/12 07:45:11;;;;;;;3.55;2.53;;;22.70;82.40;;;;;;5012414;28;20033;-78
2022/08/12 07:47:38;;;;;;;3.45;2.30;;;22.70;82.40;;;;;;5012335;28;20152;-78
2022/08/12 07:50:08;;;;;;;3.67;2.30;;;22.80;82.40;;;;;;4994342;28;20018;-80
2022/08/12 07:52:34;;;;;;;3.35;2.40;;;22.80;82.30;;;;;;4994350;28;20030;-78
2022/08/12 07:55:00;;;;;;;4.70;3.00;;;22.80;82.20;;;;;;4994700;28;20026;-78
2022/08/12 07:57:26;;;;;;;4.00;2.55;;;22.80;82.10;;;;;;5013862;28;20030;-79
2022/08/12 07:59:52;;;;;;;5.25;2.88;;;22.90;82.00;;;;;;5015774;28;20025;-78
2022/08/12 08:02:17;;;;;;;4.32;2.75;;;22.90;81.70;;;;;;4998645;28;20121;-80
2022/08/12 08:04:55;;;;;;;4.68;2.80;;;22.90;81.60;;;;;;4998436;28;20112;-80
2022/08/12 08:07:26;;;;;;;4.30;2.70;;;23.00;81.40;;;;;;4998524;28;20018;-78
2022/08/12 08:09:56;;;;;;;5.30;3.00;;;23.10;81.30;;;;;;4998141;28;20069;-79
2022/08/12 08:15:10;;;;;;;4.65;2.70;;;23.10;81.20;;;;;;5016216;28;20227;-77
2022/08/12 08:17:36;;;;;;;4.30;2.55;;;23.10;81.30;;;;;;4998354;28;20400;-78
2022/08/12 08:20:04;;;;;;;4.65;2.83;;;23.10;81.40;;;;;;5015361;28;20033;-79
2022/08/12 08:22:31;;;;;;;4.35;2.85;;;23.10;81.50;;;;;;5016333;28;20516;-79
2022/08/12 08:24:57;;;;;;;4.25;2.70;;;23.10;81.40;;;;;;5015551;28;20431;-78
2022/08/12 08:27:23;;;;;;;4.70;2.95;;;23.10;81.50;;;;;;5015667;28;20022;-79
2022/08/12 08:29:49;;;;;;;4.50;2.80;;;23.10;81.40;;;;;;4998720;28;20022;-76
2022/08/12 08:32:14;;;;;;;3.95;2.90;;;23.10;81.40;;;;;;4996667;28;20069;-77
2022/08/12 08:34:41;;;;;;;4.93;2.78;;;23.10;81.30;;;;;;5014671;28;20026;-77
2022/08/12 08:37:09;;;;;;;4.70;2.88;;;23.20;81.40;;;;;;5014368;28;20492;-77
2022/08/12 08:39:35;;;;;;;3.97;2.55;;;23.20;81.30;;;;;;5014467;28;20034;-77
2022/08/12 08:44:44;;;;;;;4.18;2.70;;;23.20;81.20;;;;;;5014315;28;20117;-77
2022/08/12 08:47:11;;;;;;;4.93;2.95;;;23.20;81.10;;;;;;5014864;28;20054;-78
2022/08/12 08:49:38;;;;;;;4.40;2.90;;;23.30;81.00;;;;;;5014775;28;20050;-77
2022/08/12 08:52:05;;;;;;;4.30;2.90;;;23.30;80.80;;;;;;5015040;28;20018;-78
2022/08/12 08:54:32;;;;;;;4.25;2.70;;;23.40;80.60;;;;;;5015184;28;20045;-78
2022/08/12 08:57:00;;;;;;;4.68;2.67;;;23.40;80.50;;;;;;4997210;28;20060;-78
2022/08/12 08:59:26;;;;;;;4.78;3.00;;;23.40;80.40;;;;;;5014507;28;20022;-76
2022/08/12 09:01:51;;;;;;;4.30;2.80;;;23.40;80.20;;;;;;4997139;28;20033;-78
2022/08/12 09:04:19;;;;;;;4.43;2.90;;;23.40;80.30;;;;;;5014239;28;20025;-78
2022/08/12 09:06:46;;;;;;;4.43;2.80;;;23.40;80.50;;;;;;5014483;28;20025;-77
2022/08/12 09:09:13;;;;;;;4.50;2.80;;;23.40;80.60;;;;;;5013463;28;20018;-78
2022/08/12 09:14:23;;;;;;;4.20;2.75;;;23.40;80.60;;;;;;5014569;28;20064;-78
2022/08/12 09:16:49;;;;;;;5.13;3.05;;;23.40;80.60;;;;;;5014447;28;20473;-78
2022/08/12 09:19:16;;;;;;;5.03;3.10;;;23.40;80.50;;;;;;5013894;28;20030;-77
2022/08/12 09:21:42;;;;;;;4.70;3.17;;;23.40;80.50;;;;;;5013792;28;20109;-77
2022/08/12 09:24:07;;;;;;;4.78;3.10;;;23.40;80.50;;;;;;5013933;28;20106;-78
2022/08/12 09:26:35;;;;;;;4.57;2.80;;;23.40;80.40;;;;;;4996407;28;20026;-78
2022/08/12 09:29:01;;;;;;;3.92;2.70;;;23.40;80.40;;;;;;4996317;28;20018;-77
2022/08/12 09:31:29;;;;;;;4.28;2.95;;;23.50;81.00;;;;;;5013337;28;20072;-77
2022/08/12 09:33:54;;;;;;;4.35;2.85;;;23.50;80.40;;;;;;4996247;28;20064;-77
2022/08/12 09:36:21;;;;;;;4.30;2.83;;;23.50;80.40;;;;;;4996320;28;20034;-77
2022/08/12 09:38:47;;;;;;;4.28;2.78;;;23.50;80.20;;;;;;5013864;28;20036;-77
2022/08/12 09:41:14;;;;;;;4.43;2.80;;;23.60;80.10;;;;;;5013075;28;20029;-78
2022/08/12 09:46:26;;;;;;;3.92;2.70;;;23.60;80.00;;;;;;5012832;28;20032;-77
2022/08/12 09:48:52;;;;;;;4.47;2.95;;;23.60;79.80;;;;;;4996016;28;20556;-77
2022/08/12 09:51:19;;;;;;;4.35;2.90;;;23.60;80.00;;;;;;5013228;28;20393;-77
2022/08/12 09:53:45;;;;;;;4.00;2.70;;;23.60;80.00;;;;;;4995605;28;20059;-77
2022/08/12 09:56:16;;;;;;;4.57;2.92;;;23.60;80.00;;;;;;5012990;28;20034;-77
2022/08/12 09:58:41;;;;;;;4.53;2.90;;;23.60;80.10;;;;;;4995218;28;20022;-77
2022/08/12 10:01:07;;;;;;;5.40;3.15;;;23.60;80.10;;;;;;5012619;28;20076;-77
2022/08/12 10:03:35;;;;;;;4.25;2.80;;;23.60;80.10;;;;;;4995613;28;20029;-77
2022/08/12 10:06:03;;;;;;;3.78;2.55;;;23.60;80.10;;;;;;5013733;28;20030;-79
2022/08/12 10:08:30;;;;;;;3.60;2.60;;;23.60;80.10;;;;;;4995975;28;20114;-78
2022/08/12 10:13:41;;;;;;;4.30;2.80;;;23.60;80.00;;;;;;5013429;28;20075;-78
2022/08/12 10:16:28;;;;;;;3.78;2.40;;;23.60;80.00;;;;;;5012889;28;20092;-77
2022/08/12 10:19:00;;;;;;;4.20;2.80;;;23.60;80.00;;;;;;5013078;28;20022;-78
2022/08/12 10:21:38;;;;;;;4.05;2.53;;;23.60;79.80;;;;;;5011746;28;20057;-77
2022/08/12 10:24:09;;;;;;;3.22;2.10;;;23.60;79.90;;;;;;5012875;28;20205;-77
2022/08/12 10:32:08;;;;;;;4.20;2.72;;;23.70;79.50;;;;;;5012969;28;20109;-77
2022/08/12 10:34:34;;;;;;;4.10;2.75;;;23.70;79.10;;;;;;5013132;28;20033;-78
2022/08/12 10:37:02;;;;;;;3.80;2.58;;;23.70;79.20;;;;;;4995290;28;20026;-77
2022/08/12 10:39:32;;;;;;;4.07;2.42;;;23.70;79.40;;;;;;4995265;28;20029;-77
2022/08/12 10:44:48;;;;;;;4.50;2.70;;;23.70;79.40;;;;;;5012920;28;20037;-77
2022/08/12 10:47:19;;;;;;;4.20;2.47;;;23.70;79.40;;;;;;5012483;28;20022;-77
2022/08/12 10:49:45;;;;;;;;;;;23.70;79.50;;;;;;4995354;28;20022;-78
2022/08/12 10:52:12;;;;;;;3.55;2.42;;;23.70;79.50;;;;;;4994768;28;20265;-77
2022/08/12 10:54:39;;;;;;;3.67;2.47;;;23.70;79.60;;;;;;5012557;28;20025;-77
2022/08/12 10:57:05;;;;;;;4.13;2.60;;;23.70;79.60;;;;;;4994578;28;20025;-77
2022/08/12 10:59:30;;;;;;;3.60;2.47;;;23.70;79.60;;;;;;5012085;28;20149;-77
2022/08/12 11:01:57;;;;;;;3.40;2.30;;;23.70;79.70;;;;;;5012123;28;20087;-77
2022/08/12 11:04:24;;;;;;;3.92;2.60;;;23.70;79.60;;;;;;4994456;28;20072;-77
2022/08/12 11:06:52;;;;;;;4.20;2.60;;;23.70;79.50;;;;;;4994607;28;20116;-77
2022/08/12 11:09:31;;;;;;;3.40;2.20;;;23.70;79.50;;;;;;4994491;28;20029;-78
2022/08/12 11:12:06;;;;;;;2.90;2.13;;;23.70;79.50;;;;;;5012180;28;20044;-78
2022/08/12 11:14:33;;;;;;;2.97;2.20;;;23.70;79.30;;;;;;5012403;28;20026;-78
2022/08/12 11:17:07;;;;;;;3.38;2.42;;;23.70;79.20;;;;;;4994572;28;20029;-79
2022/08/12 11:19:35;;;;;;;3.97;2.20;;;23.80;79.20;;;;;;5011784;28;20029;-77
2022/08/12 11:22:02;;;;;;;3.33;2.10;;;23.70;78.90;;;;;;5012207;28;20026;-78
2022/08/12 11:24:27;;;;;;;4.40;2.40;;;23.70;79.10;;;;;;5012021;28;20026;-77
2022/08/12 11:26:54;;;;;;;4.32;2.42;;;23.70;79.30;;;;;;4994587;28;20401;-77
2022/08/12 11:29:21;;;;;;;4.13;2.58;;;23.70;79.40;;;;;;4994876;28;20030;-78
2022/08/12 11:31:48;;;;;;;4.28;2.50;;;23.60;79.20;;;;;;5012589;28;20583;-78
2022/08/12 11:34:13;;;;;;;6.88;2.50;;;23.60;79.60;;;;;;4998389;28;20052;-77
2022/08/12 11:36:55;;;;;;;4.68;2.60;;;23.60;79.50;;;;;;5016372;28;20524;-77
2022/08/12 11:39:21;;;;;;;5.50;2.42;;;23.60;79.50;;;;;;4996292;28;20515;-78
2022/08/12 11:41:47;;;;;;;3.67;2.47;;;23.60;79.40;;;;;;5022530;28;20590;-79
2022/08/12 11:44:13;;;;;;;5.72;2.70;;;23.60;79.40;;;;;;5017911;28;20045;-77
2022/08/12 11:46:40;;;;;;;5.10;2.80;;;23.60;79.40;;;;;;4998606;28;20068;-78
2022/08/12 11:49:06;;;;;;;6.10;2.60;;;23.60;79.40;;;;;;5015813;28;20076;-78
2022/08/12 11:51:32;;;;;;;4.05;2.50;;;23.60;79.40;;;;;;5015718;28;20085;-77
2022/08/12 11:53:58;;;;;;;4.40;2.50;;;23.60;79.40;;;;;;5016069;28;20057;-77
2022/08/12 11:56:23;;;;;;;4.45;2.45;;;23.60;79.40;;;;;;4998593;28;20568;-78
2022/08/12 11:58:49;;;;;;;5.32;2.50;;;23.60;79.30;;;;;;4998656;28;20034;-78
2022/08/12 12:01:15;;;;;;;3.95;2.30;;;23.70;79.30;;;;;;5000020;28;20072;-79
2022/08/12 12:03:40;;;;;;;4.72;2.30;;;23.70;79.20;;;;;;5017550;28;20033;-78
2022/08/12 12:06:06;;;;;;;3.72;2.30;;;23.70;79.10;;;;;;5017088;28;20033;-78
2022/08/12 12:08:32;;;;;;;4.45;2.28;;;23.70;79.00;;;;;;5015551;28;20461;-78
2022/08/12 12:10:58;;;;;;;3.78;2.08;;;23.70;79.10;;;;;;5016097;28;20033;-78
2022/08/12 12:13:23;;;;;;;5.32;2.58;;;23.60;79.10;;;;;;5016894;28;20030;-78
2022/08/12 12:15:49;;;;;;;4.68;2.33;;;23.60;79.30;;;;;;4998869;28;20037;-78
2022/08/12 12:18:26;;;;;;;4.18;2.40;;;23.60;79.50;;;;;;4998666;28;20037;-78
2022/08/12 12:20:53;;;;;;;3.63;2.25;;;23.60;79.60;;;;;;5015753;28;20049;-78
2022/08/12 12:23:18;;;;;;;3.88;2.30;;;23.60;79.70;;;;;;5014700;28;20559;-77
2022/08/12 12:25:44;;;;;;;3.72;2.20;;;23.50;79.70;;;;;;5015760;28;20062;-78
2022/08/12 12:28:10;;;;;;;4.50;2.30;;;23.50;79.80;;;;;;5015582;28;20596;-78
2022/08/12 12:30:36;;;;;;;5.75;2.60;;;23.50;79.80;;;;;;5015172;28;20022;-78
2022/08/12 12:33:02;;;;;;;5.22;2.58;;;23.50;79.80;;;;;;4997955;28;20026;-78
2022/08/12 12:35:28;;;;;;;3.40;2.17;;;23.50;79.80;;;;;;4997933;28;20136;-78
2022/08/12 12:37:59;;;;;;;4.95;2.40;;;23.40;79.70;;;;;;4997884;28;20496;-78
2022/08/12 12:40:26;;;;;;;3.83;2.28;;;23.40;79.80;;;;;;5015127;28;20026;-78
2022/08/12 12:42:52;;;;;;;3.60;2.20;;;23.40;79.90;;;;;;5015101;28;20381;-78
2022/08/12 12:45:19;;;;;;;4.43;2.25;;;23.40;79.80;;;;;;4996546;28;20053;-78
2022/08/12 12:48:01;;;;;;;4.13;2.30;;;23.40;79.70;;;;;;5014786;28;20076;-77
2022/08/12 12:50:30;;;;;;;2.80;2.20;;;23.50;79.60;;;;;;4997157;28;20026;-78
2022/08/12 12:52:55;;;;;;;4.28;2.25;;;23.50;79.60;;;;;;4997287;28;20082;-78
2022/08/12 12:55:22;;;;;;;4.05;2.10;;;23.50;79.60;;;;;;5014915;28;20037;-78
2022/08/12 12:57:49;;;;;;;4.20;2.38;;;23.50;79.70;;;;;;4996843;28;20579;-78
2022/08/12 13:00:16;;;;;;;3.55;2.28;;;23.40;79.80;;;;;;5014311;28;20026;-77
2022/08/12 13:02:51;;;;;;;3.90;2.28;;;23.40;79.80;;;;;;5014707;28;20022;-78
2022/08/12 13:05:18;;;;;;;3.55;2.20;;;23.40;80.00;;;;;;5014591;28;20030;-78
2022/08/12 13:07:43;;;;;;;4.00;2.30;;;23.30;80.10;;;;;;5014512;28;20030;-78
2022/08/12 13:10:09;;;;;;;4.68;2.40;;;23.30;80.30;;;;;;4996781;28;20022;-78
2022/08/12 13:12:34;;;;;;;3.95;2.28;;;23.30;80.30;;;;;;4996871;28;20355;-78
2022/08/12 13:15:02;;;;;;;3.83;2.40;;;23.30;80.40;;;;;;5015255;28;20038;-78
2022/08/12 13:17:31;;;;;;;3.90;2.50;;;23.30;80.50;;;;;;5015150;28;20026;-78
2022/08/12 13:20:03;;;;;;;3.75;2.20;;;23.30;80.60;;;;;;5014942;28;20037;-78
2022/08/12 13:22:29;;;;;;;3.72;2.20;;;23.20;80.60;;;;;;5015165;28;20096;-78
2022/08/12 13:24:55;;;;;;;3.75;2.30;;;23.20;80.70;;;;;;5015069;28;20049;-78
2022/08/12 13:27:21;;;;;;;3.13;2.20;;;23.20;80.60;;;;;;5014630;28;20022;-78
2022/08/12 13:29:47;;;;;;;4.22;2.35;;;23.20;80.60;;;;;;5014775;28;20481;-78
2022/08/12 13:32:12;;;;;;;3.35;2.28;;;23.20;80.50;;;;;;5014593;28;20034;-78
2022/08/12 13:34:38;;;;;;;4.20;2.33;;;23.30;80.40;;;;;;5014836;28;20030;-78
2022/08/12 13:37:04;;;;;;;4.40;2.40;;;23.30;80.40;;;;;;5014671;28;20030;-78
2022/08/12 13:39:29;;;;;;;3.95;2.33;;;23.30;80.30;;;;;;4996810;28;20030;-78
2022/08/12 13:41:55;;;;;;;4.30;2.50;;;23.30;80.20;;;;;;5014297;28;20517;-78
2022/08/12 13:44:21;;;;;;;4.18;2.10;;;23.30;80.20;;;;;;5014400;28;20033;-78
2022/08/12 13:46:47;;;;;;;3.58;2.10;;;23.30;80.30;;;;;;5013971;28;20170;-78
2022/08/12 13:49:14;;;;;;;4.50;2.40;;;23.30;80.30;;;;;;5014231;28;20026;-78
2022/08/12 13:51:41;;;;;;;3.75;2.30;;;23.20;80.20;;;;;;4997173;28;20030;-78
2022/08/12 13:54:10;;;;;;;3.38;2.30;;;23.20;79.90;;;;;;4996305;28;20038;-77
2022/08/12 13:56:37;;;;;;;3.10;1.98;;;23.20;79.60;;;;;;5014476;28;20027;-78
2022/08/12 13:59:06;;;;;;;3.90;2.35;;;23.20;79.40;;;;;;4997165;28;20026;-77
2022/08/12 14:01:31;;;;;;;4.15;2.25;;;23.20;79.50;;;;;;5013842;28;20017;-78
2022/08/12 14:03:57;;;;;;;4.55;2.72;;;23.20;80.00;;;;;;5013797;28;20025;-76
2022/08/12 14:06:22;;;;;;;3.30;2.20;;;23.10;80.00;;;;;;5013697;28;20021;-78
2022/08/12 14:08:48;;;;;;;3.25;2.08;;;23.10;80.20;;;;;;5013393;28;20029;-77
2022/08/12 14:11:13;;;;;;;4.03;2.10;;;23.10;80.10;;;;;;5012539;28;20030;-77
2022/08/12 14:13:41;;;;;;;2.90;2.03;;;23.10;80.20;;;;;;5012614;28;20067;-77
2022/08/12 14:16:09;;;;;;;3.90;2.50;;;23.10;80.10;;;;;;5013038;28;20033;-79
2022/08/12 14:18:40;;;;;;;2.90;2.03;;;23.10;80.00;;;;;;5012323;28;20026;-75
2022/08/12 14:21:11;;;;;;;3.58;2.15;;;23.20;80.00;;;;;;4994405;28;20018;-75
2022/08/12 14:23:46;;;;;;;3.60;2.10;;;23.20;80.00;;;;;;4998975;28;20117;-84
2022/08/12 14:26:13;;;;;;;4.57;2.10;;;23.20;79.90;;;;;;4997597;28;20671;-74
2022/08/12 14:28:39;;;;;;;3.95;2.25;;;23.20;80.10;;;;;;4996978;28;20059;-79
2022/08/12 14:31:06;;;;;;;4.15;2.30;;;23.10;80.20;;;;;;5016692;28;20069;-79
2022/08/12 14:33:34;;;;;;;4.57;2.40;;;23.10;80.40;;;;;;4995971;28;20092;-77
2022/08/12 14:36:03;;;;;;;5.00;2.17;;;23.10;80.50;;;;;;5015317;28;20389;-78
2022/08/12 14:38:31;;;;;;;4.38;2.10;;;23.10;80.60;;;;;;4998211;28;20046;-78
2022/08/12 14:41:01;;;;;;;5.93;2.20;;;23.00;80.90;;;;;;5012576;28;20037;-78
2022/08/12 14:43:32;;;;;;;5.60;2.60;;;23.00;80.40;;;;;;5012927;28;20034;-78